sensor_id;sensor_type;location;lat;lon;timestamp;temperature;humidity
19437;DHT22;9854;50.968;4.168;2024-03-07T00:00:11;7.40;99.90
19437;DHT22;9854;50.968;4.168;2024-03-07T00:02:47;7.40;99.90
19437;DHT22;9854;50.968;4.168;2024-03-07T00:05:14;7.30;99.90
19437;DHT22;9854;50.968;4.168;2024-03-07T00:07:43;7.30;99.90
19437;DHT22;9854;50.968;4.168;2024-03-07T00:10:10;7.20;99.90
19437;DHT22;9854;50.968;4.168;2024-03-07T00:12:39;7.20;99.90
19437;DHT22;9854;50.968;4.168;2024-03-07T00:15:06;7.10;99.90
19437;DHT22;9854;50.968;4.168;2024-03-07T00:17:32;7.10;99.90
19437;DHT22;9854;50.968;4.168;2024-03-07T00:20:01;7.10;99.90
19437;DHT22;9854;50.968;4.168;2024-03-07T00:22:28;7.10;99.90
19437;DHT22;9854;50.968;4.168;2024-03-07T00:24:56;7.00;99.90
19437;DHT22;9854;50.968;4.168;2024-03-07T00:27:24;7.00;99.90
19437;DHT22;9854;50.968;4.168;2024-03-07T00:29:51;7.00;99.90
19437;DHT22;9854;50.968;4.168;2024-03-07T00:32:27;7.00;99.90
19437;DHT22;9854;50.968;4.168;2024-03-07T00:35:01;6.90;99.90
19437;DHT22;9854;50.968;4.168;2024-03-07T00:37:28;6.90;99.90
19437;DHT22;9854;50.968;4.168;2024-03-07T00:39:54;6.90;99.90
19437;DHT22;9854;50.968;4.168;2024-03-07T00:42:19;6.90;99.90
19437;DHT22;9854;50.968;4.168;2024-03-07T00:44:45;6.90;99.90
19437;DHT22;9854;50.968;4.168;2024-03-07T00:47:12;6.90;99.90
19437;DHT22;9854;50.968;4.168;2024-03-07T00:49:40;6.90;99.90
19437;DHT22;9854;50.968;4.168;2024-03-07T00:52:06;6.90;99.90
19437;DHT22;9854;50.968;4.168;2024-03-07T00:54:31;6.90;99.90
19437;DHT22;9854;50.968;4.168;2024-03-07T00:56:57;6.80;99.90
19437;DHT22;9854;50.968;4.168;2024-03-07T00:59:23;6.80;99.90
19437;DHT22;9854;50.968;4.168;2024-03-07T01:01:51;6.80;99.90
19437;DHT22;9854;50.968;4.168;2024-03-07T01:04:21;6.80;99.90
19437;DHT22;9854;50.968;4.168;2024-03-07T01:06:50;6.70;99.90
19437;DHT22;9854;50.968;4.168;2024-03-07T01:09:15;6.70;99.90
19437;DHT22;9854;50.968;4.168;2024-03-07T01:11:47;6.70;99.90
19437;DHT22;9854;50.968;4.168;2024-03-07T01:14:13;6.70;99.90
19437;DHT22;9854;50.968;4.168;2024-03-07T01:16:43;6.70;99.90
19437;DHT22;9854;50.968;4.168;2024-03-07T01:19:08;6.70;99.90
19437;DHT22;9854;50.968;4.168;2024-03-07T01:21:34;6.70;99.90
19437;DHT22;9854;50.968;4.168;2024-03-07T01:24:01;6.60;99.90
19437;DHT22;9854;50.968;4.168;2024-03-07T01:26:32;6.60;99.90
19437;DHT22;9854;50.968;4.168;2024-03-07T01:29:01;6.60;99.90
19437;DHT22;9854;50.968;4.168;2024-03-07T01:31:29;6.50;99.90
19437;DHT22;9854;50.968;4.168;2024-03-07T01:33:55;6.60;99.90
19437;DHT22;9854;50.968;4.168;2024-03-07T01:36:20;6.50;99.90
19437;DHT22;9854;50.968;4.168;2024-03-07T01:38:47;6.50;99.90
19437;DHT22;9854;50.968;4.168;2024-03-07T01:41:15;6.60;99.90
19437;DHT22;9854;50.968;4.168;2024-03-07T01:43:42;6.50;99.90
19437;DHT22;9854;50.968;4.168;2024-03-07T01:46:08;6.50;99.90
19437;DHT22;9854;50.968;4.168;2024-03-07T01:48:35;6.50;99.90
19437;DHT22;9854;50.968;4.168;2024-03-07T01:51:03;6.50;99.90
19437;DHT22;9854;50.968;4.168;2024-03-07T01:53:33;6.50;99.90
19437;DHT22;9854;50.968;4.168;2024-03-07T01:55:59;6.50;99.90
19437;DHT22;9854;50.968;4.168;2024-03-07T01:58:25;6.50;99.90
19437;DHT22;9854;50.968;4.168;2024-03-07T02:00:51;6.40;99.90
19437;DHT22;9854;50.968;4.168;2024-03-07T02:03:17;6.40;99.90
19437;DHT22;9854;50.968;4.168;2024-03-07T02:05:45;6.30;99.90
19437;DHT22;9854;50.968;4.168;2024-03-07T02:08:11;6.30;99.90
19437;DHT22;9854;50.968;4.168;2024-03-07T02:10:37;6.30;99.90
19437;DHT22;9854;50.968;4.168;2024-03-07T02:13:04;6.20;99.90
19437;DHT22;9854;50.968;4.168;2024-03-07T02:15:29;6.20;99.90
19437;DHT22;9854;50.968;4.168;2024-03-07T02:17:55;6.20;99.90
19437;DHT22;9854;50.968;4.168;2024-03-07T02:20:21;6.10;99.90
19437;DHT22;9854;50.968;4.168;2024-03-07T02:22:47;6.20;99.90
19437;DHT22;9854;50.968;4.168;2024-03-07T02:25:15;6.20;99.90
19437;DHT22;9854;50.968;4.168;2024-03-07T02:27:41;6.10;99.90
19437;DHT22;9854;50.968;4.168;2024-03-07T02:30:07;6.10;99.90
19437;DHT22;9854;50.968;4.168;2024-03-07T02:32:34;6.10;99.90
19437;DHT22;9854;50.968;4.168;2024-03-07T02:35:03;6.10;99.90
19437;DHT22;9854;50.968;4.168;2024-03-07T02:37:29;6.10;99.90
19437;DHT22;9854;50.968;4.168;2024-03-07T02:39:54;6.10;99.90
19437;DHT22;9854;50.968;4.168;2024-03-07T02:42:20;6.00;99.90
19437;DHT22;9854;50.968;4.168;2024-03-07T02:44:46;6.00;99.90
19437;DHT22;9854;50.968;4.168;2024-03-07T02:47:12;6.00;99.90
19437;DHT22;9854;50.968;4.168;2024-03-07T02:49:38;6.20;99.90
19437;DHT22;9854;50.968;4.168;2024-03-07T02:52:04;6.20;99.90
19437;DHT22;9854;50.968;4.168;2024-03-07T02:54:33;6.20;99.90
19437;DHT22;9854;50.968;4.168;2024-03-07T02:56:59;6.20;99.90
19437;DHT22;9854;50.968;4.168;2024-03-07T02:59:29;6.10;99.90
19437;DHT22;9854;50.968;4.168;2024-03-07T03:01:55;6.00;99.90
19437;DHT22;9854;50.968;4.168;2024-03-07T03:04:21;5.90;99.90
19437;DHT22;9854;50.968;4.168;2024-03-07T03:06:50;5.80;99.90
19437;DHT22;9854;50.968;4.168;2024-03-07T03:09:16;5.80;99.90
19437;DHT22;9854;50.968;4.168;2024-03-07T03:11:44;5.80;99.90
19437;DHT22;9854;50.968;4.168;2024-03-07T03:14:11;5.80;99.90
19437;DHT22;9854;50.968;4.168;2024-03-07T03:16:37;5.80;99.90
19437;DHT22;9854;50.968;4.168;2024-03-07T03:19:09;5.80;99.90
19437;DHT22;9854;50.968;4.168;2024-03-07T03:21:35;5.80;99.90
19437;DHT22;9854;50.968;4.168;2024-03-07T03:24:04;5.80;99.90
19437;DHT22;9854;50.968;4.168;2024-03-07T03:26:29;5.80;99.90
19437;DHT22;9854;50.968;4.168;2024-03-07T03:28:57;5.80;99.90
19437;DHT22;9854;50.968;4.168;2024-03-07T03:31:25;5.80;99.90
19437;DHT22;9854;50.968;4.168;2024-03-07T03:33:51;5.80;99.90
19437;DHT22;9854;50.968;4.168;2024-03-07T03:36:17;5.80;99.90
19437;DHT22;9854;50.968;4.168;2024-03-07T03:38:44;5.80;99.90
19437;DHT22;9854;50.968;4.168;2024-03-07T03:41:15;5.80;99.90
19437;DHT22;9854;50.968;4.168;2024-03-07T03:43:41;5.80;99.90
19437;DHT22;9854;50.968;4.168;2024-03-07T03:46:12;5.70;99.90
19437;DHT22;9854;50.968;4.168;2024-03-07T03:48:40;5.70;99.90
19437;DHT22;9854;50.968;4.168;2024-03-07T03:51:08;5.70;99.90
19437;DHT22;9854;50.968;4.168;2024-03-07T03:53:35;5.70;99.90
19437;DHT22;9854;50.968;4.168;2024-03-07T03:56:02;5.60;99.90
19437;DHT22;9854;50.968;4.168;2024-03-07T03:58:30;5.60;99.90
19437;DHT22;9854;50.968;4.168;2024-03-07T04:00:59;5.50;99.90
19437;DHT22;9854;50.968;4.168;2024-03-07T04:03:25;5.50;99.90
19437;DHT22;9854;50.968;4.168;2024-03-07T04:05:52;5.50;99.90
19437;DHT22;9854;50.968;4.168;2024-03-07T04:08:17;5.40;99.90
19437;DHT22;9854;50.968;4.168;2024-03-07T04:10:45;5.40;99.90
19437;DHT22;9854;50.968;4.168;2024-03-07T04:13:11;5.40;99.90
19437;DHT22;9854;50.968;4.168;2024-03-07T04:15:37;5.30;99.90
19437;DHT22;9854;50.968;4.168;2024-03-07T04:18:02;5.30;99.90
19437;DHT22;9854;50.968;4.168;2024-03-07T04:20:28;5.30;99.90
19437;DHT22;9854;50.968;4.168;2024-03-07T04:22:54;5.20;99.90
19437;DHT22;9854;50.968;4.168;2024-03-07T04:25:21;5.20;99.90
19437;DHT22;9854;50.968;4.168;2024-03-07T04:27:47;5.20;99.90
19437;DHT22;9854;50.968;4.168;2024-03-07T04:30:15;5.20;99.90
19437;DHT22;9854;50.968;4.168;2024-03-07T04:32:42;5.30;99.90
19437;DHT22;9854;50.968;4.168;2024-03-07T04:35:10;5.30;99.90
19437;DHT22;9854;50.968;4.168;2024-03-07T04:37:36;5.30;99.90
19437;DHT22;9854;50.968;4.168;2024-03-07T04:40:09;5.30;99.90
19437;DHT22;9854;50.968;4.168;2024-03-07T04:42:48;5.30;99.90
19437;DHT22;9854;50.968;4.168;2024-03-07T04:45:17;5.40;99.90
19437;DHT22;9854;50.968;4.168;2024-03-07T04:47:44;5.40;99.90
19437;DHT22;9854;50.968;4.168;2024-03-07T04:50:10;5.50;99.90
19437;DHT22;9854;50.968;4.168;2024-03-07T04:52:37;5.50;99.90
19437;DHT22;9854;50.968;4.168;2024-03-07T04:55:05;5.60;99.90
19437;DHT22;9854;50.968;4.168;2024-03-07T04:57:31;5.60;99.90
19437;DHT22;9854;50.968;4.168;2024-03-07T04:59:58;5.60;99.90
19437;DHT22;9854;50.968;4.168;2024-03-07T05:02:24;5.50;99.90
19437;DHT22;9854;50.968;4.168;2024-03-07T05:04:52;5.90;99.90
19437;DHT22;9854;50.968;4.168;2024-03-07T05:07:18;5.70;99.90
19437;DHT22;9854;50.968;4.168;2024-03-07T05:09:46;5.60;99.90
19437;DHT22;9854;50.968;4.168;2024-03-07T05:12:13;5.60;99.90
19437;DHT22;9854;50.968;4.168;2024-03-07T05:14:39;5.50;99.90
19437;DHT22;9854;50.968;4.168;2024-03-07T05:17:04;5.50;99.90
19437;DHT22;9854;50.968;4.168;2024-03-07T05:19:33;5.50;99.90
19437;DHT22;9854;50.968;4.168;2024-03-07T05:21:59;5.70;99.90
19437;DHT22;9854;50.968;4.168;2024-03-07T05:24:25;5.60;99.90
19437;DHT22;9854;50.968;4.168;2024-03-07T05:26:51;5.60;99.90
19437;DHT22;9854;50.968;4.168;2024-03-07T05:29:18;5.50;99.90
19437;DHT22;9854;50.968;4.168;2024-03-07T05:31:47;5.50;99.90
19437;DHT22;9854;50.968;4.168;2024-03-07T05:34:18;5.40;99.90
19437;DHT22;9854;50.968;4.168;2024-03-07T05:36:46;5.40;99.90
19437;DHT22;9854;50.968;4.168;2024-03-07T05:39:16;5.40;99.90
19437;DHT22;9854;50.968;4.168;2024-03-07T05:41:45;5.40;99.90
19437;DHT22;9854;50.968;4.168;2024-03-07T05:44:11;5.40;99.90
19437;DHT22;9854;50.968;4.168;2024-03-07T05:46:41;5.40;99.90
19437;DHT22;9854;50.968;4.168;2024-03-07T05:49:13;5.40;99.90
19437;DHT22;9854;50.968;4.168;2024-03-07T05:51:41;5.50;99.90
19437;DHT22;9854;50.968;4.168;2024-03-07T05:54:15;5.50;99.90
19437;DHT22;9854;50.968;4.168;2024-03-07T05:56:41;5.60;99.90
19437;DHT22;9854;50.968;4.168;2024-03-07T05:59:08;5.70;99.90
19437;DHT22;9854;50.968;4.168;2024-03-07T06:01:37;5.70;99.90
19437;DHT22;9854;50.968;4.168;2024-03-07T06:04:04;5.80;99.90
19437;DHT22;9854;50.968;4.168;2024-03-07T06:06:32;5.90;99.90
19437;DHT22;9854;50.968;4.168;2024-03-07T06:09:05;6.00;99.90
19437;DHT22;9854;50.968;4.168;2024-03-07T06:11:37;6.10;99.90
19437;DHT22;9854;50.968;4.168;2024-03-07T06:14:04;6.10;99.90
19437;DHT22;9854;50.968;4.168;2024-03-07T06:16:35;6.20;99.90
19437;DHT22;9854;50.968;4.168;2024-03-07T06:19:01;6.30;99.90
19437;DHT22;9854;50.968;4.168;2024-03-07T06:21:30;6.30;99.90
19437;DHT22;9854;50.968;4.168;2024-03-07T06:23:56;6.30;99.90
19437;DHT22;9854;50.968;4.168;2024-03-07T06:26:33;6.50;99.90
19437;DHT22;9854;50.968;4.168;2024-03-07T06:29:18;6.50;99.90
19437;DHT22;9854;50.968;4.168;2024-03-07T06:31:46;6.60;99.90
19437;DHT22;9854;50.968;4.168;2024-03-07T06:34:14;6.60;99.90
19437;DHT22;9854;50.968;4.168;2024-03-07T06:36:40;6.60;99.90
19437;DHT22;9854;50.968;4.168;2024-03-07T06:39:06;6.40;99.90
19437;DHT22;9854;50.968;4.168;2024-03-07T06:41:35;6.50;99.90
19437;DHT22;9854;50.968;4.168;2024-03-07T06:44:01;6.60;99.90
19437;DHT22;9854;50.968;4.168;2024-03-07T06:46:27;6.40;99.90
19437;DHT22;9854;50.968;4.168;2024-03-07T06:48:56;6.60;99.90
19437;DHT22;9854;50.968;4.168;2024-03-07T06:51:22;6.40;99.90
19437;DHT22;9854;50.968;4.168;2024-03-07T06:53:48;6.60;99.90
19437;DHT22;9854;50.968;4.168;2024-03-07T06:56:15;6.70;99.90
19437;DHT22;9854;50.968;4.168;2024-03-07T06:58:42;6.70;99.90
19437;DHT22;9854;50.968;4.168;2024-03-07T07:01:11;6.90;99.90
19437;DHT22;9854;50.968;4.168;2024-03-07T07:03:41;7.00;99.90
19437;DHT22;9854;50.968;4.168;2024-03-07T07:06:11;7.00;99.90
19437;DHT22;9854;50.968;4.168;2024-03-07T07:08:37;6.70;99.90
19437;DHT22;9854;50.968;4.168;2024-03-07T07:11:03;6.70;99.90
19437;DHT22;9854;50.968;4.168;2024-03-07T07:13:32;6.70;99.90
19437;DHT22;9854;50.968;4.168;2024-03-07T07:16:00;6.70;99.90
19437;DHT22;9854;50.968;4.168;2024-03-07T07:18:26;6.90;99.90
19437;DHT22;9854;50.968;4.168;2024-03-07T07:20:52;6.90;99.90
19437;DHT22;9854;50.968;4.168;2024-03-07T07:23:18;6.90;99.90
19437;DHT22;9854;50.968;4.168;2024-03-07T07:25:45;7.00;99.90
19437;DHT22;9854;50.968;4.168;2024-03-07T07:28:14;7.10;99.90
19437;DHT22;9854;50.968;4.168;2024-03-07T07:30:41;7.10;99.90
19437;DHT22;9854;50.968;4.168;2024-03-07T07:33:09;7.20;99.90
19437;DHT22;9854;50.968;4.168;2024-03-07T07:35:37;7.30;99.90
19437;DHT22;9854;50.968;4.168;2024-03-07T07:38:04;7.40;99.90
19437;DHT22;9854;50.968;4.168;2024-03-07T07:40:32;7.40;99.90
19437;DHT22;9854;50.968;4.168;2024-03-07T07:42:58;7.50;99.90
19437;DHT22;9854;50.968;4.168;2024-03-07T07:45:29;7.40;99.90
19437;DHT22;9854;50.968;4.168;2024-03-07T07:47:55;7.40;99.90
19437;DHT22;9854;50.968;4.168;2024-03-07T07:50:26;7.40;99.90
19437;DHT22;9854;50.968;4.168;2024-03-07T07:55:20;7.60;99.90
19437;DHT22;9854;50.968;4.168;2024-03-07T07:57:57;7.70;99.90
19437;DHT22;9854;50.968;4.168;2024-03-07T08:00:25;7.80;99.90
19437;DHT22;9854;50.968;4.168;2024-03-07T08:03:06;7.90;99.90
19437;DHT22;9854;50.968;4.168;2024-03-07T08:05:36;8.00;99.90
19437;DHT22;9854;50.968;4.168;2024-03-07T08:08:04;8.00;99.90
19437;DHT22;9854;50.968;4.168;2024-03-07T08:10:32;8.10;99.90
19437;DHT22;9854;50.968;4.168;2024-03-07T08:12:58;8.20;99.90
19437;DHT22;9854;50.968;4.168;2024-03-07T08:15:27;8.30;99.90
19437;DHT22;9854;50.968;4.168;2024-03-07T08:17:54;8.10;99.90
19437;DHT22;9854;50.968;4.168;2024-03-07T08:20:23;8.20;99.90
19437;DHT22;9854;50.968;4.168;2024-03-07T08:22:54;8.20;99.90
19437;DHT22;9854;50.968;4.168;2024-03-07T08:25:25;8.30;99.90
19437;DHT22;9854;50.968;4.168;2024-03-07T08:27:55;8.60;99.90
19437;DHT22;9854;50.968;4.168;2024-03-07T08:30:22;8.60;99.90
19437;DHT22;9854;50.968;4.168;2024-03-07T08:32:55;8.50;99.90
19437;DHT22;9854;50.968;4.168;2024-03-07T08:35:22;8.40;99.90
19437;DHT22;9854;50.968;4.168;2024-03-07T08:37:49;8.50;99.90
19437;DHT22;9854;50.968;4.168;2024-03-07T08:40:19;8.30;99.90
19437;DHT22;9854;50.968;4.168;2024-03-07T08:42:46;8.10;99.90
19437;DHT22;9854;50.968;4.168;2024-03-07T08:45:12;8.20;99.90
19437;DHT22;9854;50.968;4.168;2024-03-07T08:47:45;8.40;99.90
19437;DHT22;9854;50.968;4.168;2024-03-07T08:50:12;8.80;99.90
19437;DHT22;9854;50.968;4.168;2024-03-07T08:52:39;8.50;99.90
19437;DHT22;9854;50.968;4.168;2024-03-07T08:55:06;8.50;99.90
19437;DHT22;9854;50.968;4.168;2024-03-07T08:57:35;8.40;99.90
19437;DHT22;9854;50.968;4.168;2024-03-07T09:00:03;8.60;99.90
19437;DHT22;9854;50.968;4.168;2024-03-07T09:02:34;8.90;99.90
19437;DHT22;9854;50.968;4.168;2024-03-07T09:05:05;9.10;99.90
19437;DHT22;9854;50.968;4.168;2024-03-07T09:07:32;8.90;99.90
19437;DHT22;9854;50.968;4.168;2024-03-07T09:09:58;8.80;99.90
19437;DHT22;9854;50.968;4.168;2024-03-07T09:12:24;9.10;99.90
19437;DHT22;9854;50.968;4.168;2024-03-07T09:14:53;9.30;99.90
19437;DHT22;9854;50.968;4.168;2024-03-07T09:17:20;9.70;99.90
19437;DHT22;9854;50.968;4.168;2024-03-07T09:19:46;9.90;99.90
19437;DHT22;9854;50.968;4.168;2024-03-07T09:22:14;9.90;99.90
19437;DHT22;9854;50.968;4.168;2024-03-07T09:24:39;9.80;99.90
19437;DHT22;9854;50.968;4.168;2024-03-07T09:27:05;9.80;99.90
19437;DHT22;9854;50.968;4.168;2024-03-07T09:29:31;9.70;99.90
19437;DHT22;9854;50.968;4.168;2024-03-07T09:31:59;9.50;99.90
19437;DHT22;9854;50.968;4.168;2024-03-07T09:34:27;9.50;99.90
19437;DHT22;9854;50.968;4.168;2024-03-07T09:36:53;9.40;99.90
19437;DHT22;9854;50.968;4.168;2024-03-07T09:39:19;9.40;99.90
19437;DHT22;9854;50.968;4.168;2024-03-07T09:41:45;9.30;99.90
19437;DHT22;9854;50.968;4.168;2024-03-07T09:44:15;9.30;99.90
19437;DHT22;9854;50.968;4.168;2024-03-07T09:46:50;9.30;99.90
19437;DHT22;9854;50.968;4.168;2024-03-07T09:49:19;9.40;99.90
19437;DHT22;9854;50.968;4.168;2024-03-07T09:51:46;9.60;99.90
19437;DHT22;9854;50.968;4.168;2024-03-07T09:54:12;9.70;99.90
19437;DHT22;9854;50.968;4.168;2024-03-07T09:56:39;10.00;99.90
19437;DHT22;9854;50.968;4.168;2024-03-07T09:59:11;10.00;99.90
19437;DHT22;9854;50.968;4.168;2024-03-07T10:01:39;10.00;99.90
19437;DHT22;9854;50.968;4.168;2024-03-07T10:04:09;10.20;99.90
19437;DHT22;9854;50.968;4.168;2024-03-07T10:06:38;10.20;99.90
19437;DHT22;9854;50.968;4.168;2024-03-07T10:09:10;10.70;99.90
19437;DHT22;9854;50.968;4.168;2024-03-07T10:11:40;10.60;99.90
19437;DHT22;9854;50.968;4.168;2024-03-07T10:14:07;10.70;99.90
19437;DHT22;9854;50.968;4.168;2024-03-07T10:16:33;10.80;99.90
19437;DHT22;9854;50.968;4.168;2024-03-07T10:18:59;10.90;99.90
19437;DHT22;9854;50.968;4.168;2024-03-07T10:21:27;11.10;99.90
19437;DHT22;9854;50.968;4.168;2024-03-07T10:24:06;11.20;99.90
19437;DHT22;9854;50.968;4.168;2024-03-07T10:26:36;11.20;99.90
19437;DHT22;9854;50.968;4.168;2024-03-07T10:29:06;11.20;99.90
19437;DHT22;9854;50.968;4.168;2024-03-07T10:31:33;11.10;99.90
19437;DHT22;9854;50.968;4.168;2024-03-07T10:34:03;11.20;99.90
19437;DHT22;9854;50.968;4.168;2024-03-07T10:36:30;11.20;99.90
19437;DHT22;9854;50.968;4.168;2024-03-07T10:39:02;11.40;99.90
19437;DHT22;9854;50.968;4.168;2024-03-07T10:41:35;11.50;99.90
19437;DHT22;9854;50.968;4.168;2024-03-07T10:44:03;11.60;99.90
19437;DHT22;9854;50.968;4.168;2024-03-07T10:46:30;11.70;99.90
19437;DHT22;9854;50.968;4.168;2024-03-07T10:48:59;11.60;99.90
19437;DHT22;9854;50.968;4.168;2024-03-07T10:51:38;11.60;99.90
19437;DHT22;9854;50.968;4.168;2024-03-07T10:54:24;11.80;99.90
19437;DHT22;9854;50.968;4.168;2024-03-07T10:57:28;12.10;99.90
19437;DHT22;9854;50.968;4.168;2024-03-07T11:00:03;12.00;99.90
19437;DHT22;9854;50.968;4.168;2024-03-07T11:02:54;12.10;99.90
19437;DHT22;9854;50.968;4.168;2024-03-07T11:05:21;12.10;99.90
19437;DHT22;9854;50.968;4.168;2024-03-07T11:07:52;12.20;99.90
19437;DHT22;9854;50.968;4.168;2024-03-07T11:10:19;12.20;99.90
19437;DHT22;9854;50.968;4.168;2024-03-07T11:12:46;12.10;99.90
19437;DHT22;9854;50.968;4.168;2024-03-07T11:15:14;12.20;99.90
19437;DHT22;9854;50.968;4.168;2024-03-07T11:17:46;12.40;99.90
19437;DHT22;9854;50.968;4.168;2024-03-07T11:22:48;12.40;99.90
19437;DHT22;9854;50.968;4.168;2024-03-07T11:25:18;12.70;99.90
19437;DHT22;9854;50.968;4.168;2024-03-07T11:28:00;12.90;99.90
19437;DHT22;9854;50.968;4.168;2024-03-07T11:30:26;13.20;99.90
19437;DHT22;9854;50.968;4.168;2024-03-07T11:32:55;13.50;99.90
19437;DHT22;9854;50.968;4.168;2024-03-07T11:35:31;13.80;99.90
19437;DHT22;9854;50.968;4.168;2024-03-07T11:37:58;14.10;99.90
19437;DHT22;9854;50.968;4.168;2024-03-07T11:42:52;14.60;99.90
19437;DHT22;9854;50.968;4.168;2024-03-07T11:45:22;14.90;99.90
19437;DHT22;9854;50.968;4.168;2024-03-07T11:47:54;14.80;99.90
19437;DHT22;9854;50.968;4.168;2024-03-07T11:50:32;14.70;99.90
19437;DHT22;9854;50.968;4.168;2024-03-07T11:53:01;14.60;99.90
19437;DHT22;9854;50.968;4.168;2024-03-07T11:55:29;14.80;99.90
19437;DHT22;9854;50.968;4.168;2024-03-07T11:57:55;14.90;99.90
19437;DHT22;9854;50.968;4.168;2024-03-07T12:00:21;15.00;99.90
19437;DHT22;9854;50.968;4.168;2024-03-07T12:02:50;14.90;99.90
19437;DHT22;9854;50.968;4.168;2024-03-07T12:05:16;14.60;99.90
19437;DHT22;9854;50.968;4.168;2024-03-07T12:07:42;14.40;99.90
19437;DHT22;9854;50.968;4.168;2024-03-07T12:10:08;14.20;99.90
19437;DHT22;9854;50.968;4.168;2024-03-07T12:12:38;14.20;99.90
19437;DHT22;9854;50.968;4.168;2024-03-07T12:15:07;14.10;99.90
19437;DHT22;9854;50.968;4.168;2024-03-07T12:17:45;14.20;99.90
19437;DHT22;9854;50.968;4.168;2024-03-07T12:20:14;14.50;99.90
19437;DHT22;9854;50.968;4.168;2024-03-07T12:23:00;14.90;99.90
19437;DHT22;9854;50.968;4.168;2024-03-07T12:25:32;15.10;99.90
19437;DHT22;9854;50.968;4.168;2024-03-07T12:33:13;16.10;99.90
19437;DHT22;9854;50.968;4.168;2024-03-07T12:35:49;16.10;99.90
19437;DHT22;9854;50.968;4.168;2024-03-07T12:38:21;16.10;99.90
19437;DHT22;9854;50.968;4.168;2024-03-07T12:41:05;16.20;99.90
19437;DHT22;9854;50.968;4.168;2024-03-07T12:43:33;16.20;99.90
19437;DHT22;9854;50.968;4.168;2024-03-07T12:45:59;16.00;99.90
19437;DHT22;9854;50.968;4.168;2024-03-07T12:48:33;15.60;99.90
19437;DHT22;9854;50.968;4.168;2024-03-07T12:51:04;15.60;99.90
19437;DHT22;9854;50.968;4.168;2024-03-07T12:53:31;15.80;99.90
19437;DHT22;9854;50.968;4.168;2024-03-07T12:55:57;16.10;99.90
19437;DHT22;9854;50.968;4.168;2024-03-07T12:58:22;16.20;99.90
19437;DHT22;9854;50.968;4.168;2024-03-07T13:00:52;16.20;99.90
19437;DHT22;9854;50.968;4.168;2024-03-07T13:03:26;16.30;99.90
19437;DHT22;9854;50.968;4.168;2024-03-07T13:05:57;16.40;99.90
19437;DHT22;9854;50.968;4.168;2024-03-07T13:08:28;16.30;99.90
19437;DHT22;9854;50.968;4.168;2024-03-07T13:10:57;15.70;99.90
19437;DHT22;9854;50.968;4.168;2024-03-07T13:13:27;15.80;99.90
19437;DHT22;9854;50.968;4.168;2024-03-07T13:15:52;15.70;99.90
19437;DHT22;9854;50.968;4.168;2024-03-07T13:18:23;15.00;99.90
19437;DHT22;9854;50.968;4.168;2024-03-07T13:20:49;15.40;99.90
19437;DHT22;9854;50.968;4.168;2024-03-07T13:23:15;15.50;99.90
19437;DHT22;9854;50.968;4.168;2024-03-07T13:25:43;14.80;99.90
19437;DHT22;9854;50.968;4.168;2024-03-07T13:28:14;14.80;99.90
19437;DHT22;9854;50.968;4.168;2024-03-07T13:30:42;14.90;99.90
19437;DHT22;9854;50.968;4.168;2024-03-07T13:33:13;14.80;99.90
19437;DHT22;9854;50.968;4.168;2024-03-07T13:35:40;15.00;99.90
19437;DHT22;9854;50.968;4.168;2024-03-07T13:38:06;15.30;99.90
19437;DHT22;9854;50.968;4.168;2024-03-07T13:40:33;15.50;99.90
19437;DHT22;9854;50.968;4.168;2024-03-07T13:43:04;15.60;99.90
19437;DHT22;9854;50.968;4.168;2024-03-07T13:45:33;15.50;99.90
19437;DHT22;9854;50.968;4.168;2024-03-07T13:48:08;15.80;99.90
19437;DHT22;9854;50.968;4.168;2024-03-07T13:50:36;15.90;99.90
19437;DHT22;9854;50.968;4.168;2024-03-07T13:53:03;16.10;99.90
19437;DHT22;9854;50.968;4.168;2024-03-07T14:04:51;16.10;99.90
19437;DHT22;9854;50.968;4.168;2024-03-07T14:07:47;16.20;99.90
19437;DHT22;9854;50.968;4.168;2024-03-07T14:30:55;17.70;99.90
19437;DHT22;9854;50.968;4.168;2024-03-07T14:33:47;17.90;99.90
19437;DHT22;9854;50.968;4.168;2024-03-07T14:36:15;18.10;99.90
19437;DHT22;9854;50.968;4.168;2024-03-07T14:41:23;18.20;99.90
19437;DHT22;9854;50.968;4.168;2024-03-07T14:43:51;18.10;99.90
19437;DHT22;9854;50.968;4.168;2024-03-07T14:46:17;17.80;99.90
19437;DHT22;9854;50.968;4.168;2024-03-07T14:48:46;17.40;99.90
19437;DHT22;9854;50.968;4.168;2024-03-07T14:51:12;17.70;99.90
19437;DHT22;9854;50.968;4.168;2024-03-07T14:53:40;17.90;99.90
19437;DHT22;9854;50.968;4.168;2024-03-07T14:56:09;17.60;99.90
19437;DHT22;9854;50.968;4.168;2024-03-07T14:58:38;17.80;99.90
19437;DHT22;9854;50.968;4.168;2024-03-07T15:01:05;17.80;99.90
19437;DHT22;9854;50.968;4.168;2024-03-07T15:03:34;18.00;99.90
19437;DHT22;9854;50.968;4.168;2024-03-07T15:06:00;18.10;99.90
19437;DHT22;9854;50.968;4.168;2024-03-07T15:08:30;18.10;99.90
19437;DHT22;9854;50.968;4.168;2024-03-07T15:11:12;18.00;99.90
19437;DHT22;9854;50.968;4.168;2024-03-07T15:13:42;17.70;99.90
19437;DHT22;9854;50.968;4.168;2024-03-07T15:16:10;17.80;99.90
19437;DHT22;9854;50.968;4.168;2024-03-07T15:18:38;17.10;99.90
19437;DHT22;9854;50.968;4.168;2024-03-07T15:21:09;17.40;99.90
19437;DHT22;9854;50.968;4.168;2024-03-07T15:23:41;16.40;99.90
19437;DHT22;9854;50.968;4.168;2024-03-07T15:26:07;16.70;99.90
19437;DHT22;9854;50.968;4.168;2024-03-07T15:28:33;16.90;99.90
19437;DHT22;9854;50.968;4.168;2024-03-07T15:31:01;17.20;99.90
19437;DHT22;9854;50.968;4.168;2024-03-07T15:33:36;17.50;99.90
19437;DHT22;9854;50.968;4.168;2024-03-07T15:36:02;17.60;99.90
19437;DHT22;9854;50.968;4.168;2024-03-07T15:38:33;17.20;99.90
19437;DHT22;9854;50.968;4.168;2024-03-07T15:41:02;17.40;99.90
19437;DHT22;9854;50.968;4.168;2024-03-07T15:43:28;17.30;99.90
19437;DHT22;9854;50.968;4.168;2024-03-07T15:45:54;17.50;99.90
19437;DHT22;9854;50.968;4.168;2024-03-07T15:48:25;17.70;99.90
19437;DHT22;9854;50.968;4.168;2024-03-07T15:50:51;17.50;99.90
19437;DHT22;9854;50.968;4.168;2024-03-07T15:53:18;16.90;99.90
19437;DHT22;9854;50.968;4.168;2024-03-07T15:55:44;16.80;99.90
19437;DHT22;9854;50.968;4.168;2024-03-07T15:58:10;16.70;99.90
19437;DHT22;9854;50.968;4.168;2024-03-07T16:00:36;16.20;99.90
19437;DHT22;9854;50.968;4.168;2024-03-07T16:03:07;16.00;99.90
19437;DHT22;9854;50.968;4.168;2024-03-07T16:05:37;16.40;99.90
19437;DHT22;9854;50.968;4.168;2024-03-07T16:08:08;16.80;99.90
19437;DHT22;9854;50.968;4.168;2024-03-07T16:10:40;17.40;99.90
19437;DHT22;9854;50.968;4.168;2024-03-07T16:13:10;17.20;99.90
19437;DHT22;9854;50.968;4.168;2024-03-07T16:15:40;17.00;99.90
19437;DHT22;9854;50.968;4.168;2024-03-07T16:18:08;16.70;99.90
19437;DHT22;9854;50.968;4.168;2024-03-07T16:20:35;16.70;99.90
19437;DHT22;9854;50.968;4.168;2024-03-07T16:23:01;17.30;99.90
19437;DHT22;9854;50.968;4.168;2024-03-07T16:25:34;17.00;99.90
19437;DHT22;9854;50.968;4.168;2024-03-07T16:28:02;17.40;99.90
19437;DHT22;9854;50.968;4.168;2024-03-07T16:30:31;17.70;99.90
19437;DHT22;9854;50.968;4.168;2024-03-07T16:32:58;17.70;99.90
19437;DHT22;9854;50.968;4.168;2024-03-07T16:35:26;18.20;99.90
19437;DHT22;9854;50.968;4.168;2024-03-07T16:37:52;18.10;99.90
19437;DHT22;9854;50.968;4.168;2024-03-07T16:40:23;18.40;99.90
19437;DHT22;9854;50.968;4.168;2024-03-07T16:42:54;18.50;99.90
19437;DHT22;9854;50.968;4.168;2024-03-07T16:45:31;18.90;99.90
19437;DHT22;9854;50.968;4.168;2024-03-07T16:48:00;18.90;99.90